sensor_id;sensor_type;location;lat;lon;timestamp;pressure;altitude;pressure_sealevel;temperature;humidity
75815;BME280;64451;45.574;14.224;2023-03-23T00:00:25;96941.47;;;0.61;100.00
75815;BME280;64451;45.574;14.224;2023-03-23T00:02:30;96936.78;;;0.44;100.00
75815;BME280;64451;45.574;14.224;2023-03-23T00:04:35;96933.75;;;0.22;100.00
75815;BME280;64451;45.574;14.224;2023-03-23T00:06:35;96933.81;;;-0.03;100.00
75815;BME280;64451;45.574;14.224;2023-03-23T00:08:38;96936.59;;;0.03;100.00
75815;BME280;64451;45.574;14.224;2023-03-23T00:10:48;96937.56;;;0.08;100.00
75815;BME280;64451;45.574;14.224;2023-03-23T00:12:48;96939.19;;;0.09;100.00
75815;BME280;64451;45.574;14.224;2023-03-23T00:14:49;96945.44;;;0.15;100.00
75815;BME280;64451;45.574;14.224;2023-03-23T00:16:54;96944.63;;;0.14;100.00
75815;BME280;64451;45.574;14.224;2023-03-23T00:18:56;96934.25;;;0.13;100.00
75815;BME280;64451;45.574;14.224;2023-03-23T00:20:57;96933.56;;;-0.01;100.00
75815;BME280;64451;45.574;14.224;2023-03-23T00:22:58;96936.75;;;0.08;100.00
75815;BME280;64451;45.574;14.224;2023-03-23T00:25:00;96932.34;;;0.38;100.00
75815;BME280;64451;45.574;14.224;2023-03-23T00:27:00;96933.69;;;0.29;100.00
75815;BME280;64451;45.574;14.224;2023-03-23T00:29:03;96933.75;;;0.22;100.00
75815;BME280;64451;45.574;14.224;2023-03-23T00:31:05;96929.94;;;0.18;100.00
75815;BME280;64451;45.574;14.224;2023-03-23T00:33:06;96936.25;;;0.17;100.00
75815;BME280;64451;45.574;14.224;2023-03-23T00:35:07;96924.94;;;0.10;100.00
75815;BME280;64451;45.574;14.224;2023-03-23T00:37:08;96929.78;;;0.13;100.00
75815;BME280;64451;45.574;14.224;2023-03-23T00:39:09;96920.16;;;0.19;100.00
75815;BME280;64451;45.574;14.224;2023-03-23T00:41:09;96918.75;;;0.16;100.00
75815;BME280;64451;45.574;14.224;2023-03-23T00:43:11;96922.56;;;0.02;100.00
75815;BME280;64451;45.574;14.224;2023-03-23T00:45:13;96922.84;;;-0.06;100.00
75815;BME280;64451;45.574;14.224;2023-03-23T00:47:15;96920.34;;;-0.01;100.00
75815;BME280;64451;45.574;14.224;2023-03-23T00:49:19;96920.44;;;-0.08;100.00
75815;BME280;64451;45.574;14.224;2023-03-23T00:51:20;96920.28;;;-0.13;100.00
75815;BME280;64451;45.574;14.224;2023-03-23T00:53:21;96927.63;;;-0.15;100.00
75815;BME280;64451;45.574;14.224;2023-03-23T00:55:22;96916.34;;;-0.29;100.00
75815;BME280;64451;45.574;14.224;2023-03-23T00:57:23;96933.81;;;-0.28;100.00
75815;BME280;64451;45.574;14.224;2023-03-23T00:59:24;96920.59;;;-0.28;100.00
75815;BME280;64451;45.574;14.224;2023-03-23T01:01:24;96920.88;;;-0.36;100.00
75815;BME280;64451;45.574;14.224;2023-03-23T01:03:25;96928.19;;;-0.31;100.00
75815;BME280;64451;45.574;14.224;2023-03-23T01:05:26;96930.22;;;-0.33;100.00
75815;BME280;64451;45.574;14.224;2023-03-23T01:07:31;96929.41;;;-0.34;100.00
75815;BME280;64451;45.574;14.224;2023-03-23T01:09:32;96921.28;;;-0.32;100.00
75815;BME280;64451;45.574;14.224;2023-03-23T01:11:32;96912.09;;;-0.30;100.00
75815;BME280;64451;45.574;14.224;2023-03-23T01:13:33;96917.44;;;-0.36;100.00
75815;BME280;64451;45.574;14.224;2023-03-23T01:15:34;96916.03;;;-0.39;100.00
75815;BME280;64451;45.574;14.224;2023-03-23T01:17:35;96913.97;;;-0.37;100.00
75815;BME280;64451;45.574;14.224;2023-03-23T01:19:35;96907.72;;;-0.42;100.00
75815;BME280;64451;45.574;14.224;2023-03-23T01:21:37;96911.59;;;-0.45;100.00
75815;BME280;64451;45.574;14.224;2023-03-23T01:23:38;96912.31;;;-0.31;100.00
75815;BME280;64451;45.574;14.224;2023-03-23T01:25:39;96906.56;;;-0.28;100.00
75815;BME280;64451;45.574;14.224;2023-03-23T01:27:39;96908.25;;;-0.34;100.00
75815;BME280;64451;45.574;14.224;2023-03-23T01:29:40;96905.00;;;-0.36;100.00
75815;BME280;64451;45.574;14.224;2023-03-23T01:31:40;96904.47;;;-0.44;100.00
75815;BME280;64451;45.574;14.224;2023-03-23T01:33:42;96909.53;;;-0.43;100.00
75815;BME280;64451;45.574;14.224;2023-03-23T01:35:43;96906.59;;;-0.53;100.00
75815;BME280;64451;45.574;14.224;2023-03-23T01:37:43;96892.34;;;-0.52;100.00
75815;BME280;64451;45.574;14.224;2023-03-23T01:39:43;96899.19;;;-0.44;100.00
75815;BME280;64451;45.574;14.224;2023-03-23T01:41:44;96893.00;;;-0.32;100.00
75815;BME280;64451;45.574;14.224;2023-03-23T01:44:05;96897.56;;;-0.02;100.00
75815;BME280;64451;45.574;14.224;2023-03-23T01:46:06;96892.97;;;-0.07;100.00
75815;BME280;64451;45.574;14.224;2023-03-23T01:50:10;96895.88;;;-0.33;100.00
75815;BME280;64451;45.574;14.224;2023-03-23T01:52:16;96897.47;;;-0.32;100.00
75815;BME280;64451;45.574;14.224;2023-03-23T01:54:22;96887.56;;;-0.18;100.00
75815;BME280;64451;45.574;14.224;2023-03-23T01:56:27;96892.44;;;-0.15;100.00
75815;BME280;64451;45.574;14.224;2023-03-23T01:58:32;96893.66;;;-0.18;100.00
75815;BME280;64451;45.574;14.224;2023-03-23T02:00:34;96887.28;;;-0.10;100.00
75815;BME280;64451;45.574;14.224;2023-03-23T02:02:35;96894.28;;;-0.16;100.00
75815;BME280;64451;45.574;14.224;2023-03-23T02:04:36;96898.28;;;-0.32;100.00
75815;BME280;64451;45.574;14.224;2023-03-23T02:06:37;96895.63;;;-0.32;100.00
75815;BME280;64451;45.574;14.224;2023-03-23T02:08:40;96904.25;;;-0.43;100.00
75815;BME280;64451;45.574;14.224;2023-03-23T02:10:41;96898.66;;;-0.53;100.00
75815;BME280;64451;45.574;14.224;2023-03-23T02:12:41;96897.31;;;-0.62;100.00
75815;BME280;64451;45.574;14.224;2023-03-23T02:14:42;96896.13;;;-0.41;100.00
75815;BME280;64451;45.574;14.224;2023-03-23T02:17:03;96891.66;;;-0.41;100.00
75815;BME280;64451;45.574;14.224;2023-03-23T02:35:37;96883.34;;;-1.01;100.00
75815;BME280;64451;45.574;14.224;2023-03-23T02:37:46;96881.75;;;-1.02;100.00
75815;BME280;64451;45.574;14.224;2023-03-23T02:39:59;96882.03;;;-0.85;100.00
75815;BME280;64451;45.574;14.224;2023-03-23T02:42:09;96878.53;;;-0.54;100.00
75815;BME280;64451;45.574;14.224;2023-03-23T02:44:11;96871.19;;;-0.52;100.00
75815;BME280;64451;45.574;14.224;2023-03-23T02:46:13;96871.69;;;-0.62;100.00
75815;BME280;64451;45.574;14.224;2023-03-23T02:48:17;96872.53;;;-0.93;100.00
75815;BME280;64451;45.574;14.224;2023-03-23T02:50:21;96874.66;;;-1.08;100.00
75815;BME280;64451;45.574;14.224;2023-03-23T02:52:26;96864.25;;;-0.96;100.00
75815;BME280;64451;45.574;14.224;2023-03-23T02:54:28;96870.81;;;-1.05;100.00
75815;BME280;64451;45.574;14.224;2023-03-23T02:56:29;96859.31;;;-1.18;100.00
75815;BME280;64451;45.574;14.224;2023-03-23T02:58:33;96862.50;;;-1.09;100.00
75815;BME280;64451;45.574;14.224;2023-03-23T03:00:40;96882.41;;;-1.06;100.00
75815;BME280;64451;45.574;14.224;2023-03-23T03:02:43;96870.59;;;-1.04;100.00
75815;BME280;64451;45.574;14.224;2023-03-23T03:04:53;96867.72;;;-1.02;100.00
75815;BME280;64451;45.574;14.224;2023-03-23T03:07:23;96866.94;;;-1.03;100.00
75815;BME280;64451;45.574;14.224;2023-03-23T03:11:35;96859.00;;;-1.03;100.00
75815;BME280;64451;45.574;14.224;2023-03-23T03:15:54;96870.22;;;-1.07;100.00
75815;BME280;64451;45.574;14.224;2023-03-23T03:18:06;96872.25;;;-1.09;100.00
75815;BME280;64451;45.574;14.224;2023-03-23T03:20:08;96866.34;;;-1.05;100.00
75815;BME280;64451;45.574;14.224;2023-03-23T03:22:13;96863.44;;;-0.97;100.00
75815;BME280;64451;45.574;14.224;2023-03-23T03:24:17;96862.63;;;-0.97;100.00
75815;BME280;64451;45.574;14.224;2023-03-23T03:26:19;96866.84;;;-0.90;100.00
75815;BME280;64451;45.574;14.224;2023-03-23T03:28:46;96864.84;;;-0.94;100.00
75815;BME280;64451;45.574;14.224;2023-03-23T03:30:52;96868.13;;;-0.99;100.00
75815;BME280;64451;45.574;14.224;2023-03-23T03:32:54;96871.31;;;-0.90;100.00
75815;BME280;64451;45.574;14.224;2023-03-23T03:34:54;96864.53;;;-0.54;100.00
75815;BME280;64451;45.574;14.224;2023-03-23T03:36:56;96875.69;;;-0.52;100.00
75815;BME280;64451;45.574;14.224;2023-03-23T03:38:58;96871.66;;;-0.37;100.00
75815;BME280;64451;45.574;14.224;2023-03-23T03:40:59;96859.94;;;-0.41;100.00
75815;BME280;64451;45.574;14.224;2023-03-23T03:42:59;96858.91;;;-0.40;100.00
75815;BME280;64451;45.574;14.224;2023-03-23T03:44:59;96858.09;;;-0.40;100.00
75815;BME280;64451;45.574;14.224;2023-03-23T03:47:00;96859.84;;;-0.34;100.00
75815;BME280;64451;45.574;14.224;2023-03-23T03:49:02;96863.75;;;-0.37;100.00
75815;BME280;64451;45.574;14.224;2023-03-23T03:51:03;96868.13;;;-0.49;100.00
75815;BME280;64451;45.574;14.224;2023-03-23T03:53:04;96865.78;;;-0.57;100.00
75815;BME280;64451;45.574;14.224;2023-03-23T03:55:07;96865.63;;;-0.44;100.00
75815;BME280;64451;45.574;14.224;2023-03-23T03:57:07;96859.84;;;-0.34;100.00
75815;BME280;64451;45.574;14.224;2023-03-23T03:59:09;96862.69;;;-0.54;100.00
75815;BME280;64451;45.574;14.224;2023-03-23T04:01:10;96871.69;;;-0.62;100.00
75815;BME280;64451;45.574;14.224;2023-03-23T04:03:10;96865.00;;;-0.64;100.00
75815;BME280;64451;45.574;14.224;2023-03-23T04:05:11;96860.34;;;-0.44;100.00
75815;BME280;64451;45.574;14.224;2023-03-23T04:07:11;96866.34;;;-0.55;100.00
75815;BME280;64451;45.574;14.224;2023-03-23T04:09:19;96867.06;;;-0.66;100.00
75815;BME280;64451;45.574;14.224;2023-03-23T04:11:21;96866.84;;;-0.65;100.00
75815;BME280;64451;45.574;14.224;2023-03-23T04:13:21;96862.88;;;-0.74;100.00
75815;BME280;64451;45.574;14.224;2023-03-23T04:15:22;96869.38;;;-0.76;100.00
75815;BME280;64451;45.574;14.224;2023-03-23T04:17:22;96865.56;;;-0.80;100.00
75815;BME280;64451;45.574;14.224;2023-03-23T04:19:26;96868.00;;;-0.86;100.00
75815;BME280;64451;45.574;14.224;2023-03-23T04:21:36;96880.69;;;-0.44;100.00
75815;BME280;64451;45.574;14.224;2023-03-23T04:23:37;96884.53;;;-0.65;100.00
75815;BME280;64451;45.574;14.224;2023-03-23T04:25:38;96880.84;;;-0.89;100.00
75815;BME280;64451;45.574;14.224;2023-03-23T04:27:40;96884.22;;;-1.07;100.00
75815;BME280;64451;45.574;14.224;2023-03-23T04:29:46;96882.94;;;-1.29;100.00
75815;BME280;64451;45.574;14.224;2023-03-23T04:31:48;96886.25;;;-1.40;100.00
75815;BME280;64451;45.574;14.224;2023-03-23T04:33:51;96887.91;;;-1.46;100.00
75815;BME280;64451;45.574;14.224;2023-03-23T04:35:54;96885.03;;;-1.45;100.00
75815;BME280;64451;45.574;14.224;2023-03-23T04:37:55;96884.25;;;-1.52;100.00
75815;BME280;64451;45.574;14.224;2023-03-23T04:39:56;96890.88;;;-1.81;100.00
75815;BME280;64451;45.574;14.224;2023-03-23T04:42:01;96879.13;;;-1.91;100.00
75815;BME280;64451;45.574;14.224;2023-03-23T04:44:02;96893.13;;;-1.84;100.00
75815;BME280;64451;45.574;14.224;2023-03-23T04:46:06;96876.31;;;-1.90;100.00
75815;BME280;64451;45.574;14.224;2023-03-23T04:48:08;96882.56;;;-1.84;100.00
75815;BME280;64451;45.574;14.224;2023-03-23T04:50:11;96882.06;;;-1.55;100.00
75815;BME280;64451;45.574;14.224;2023-03-23T04:52:14;96876.81;;;-1.61;100.00
75815;BME280;64451;45.574;14.224;2023-03-23T04:54:15;96887.59;;;-1.70;100.00
75815;BME280;64451;45.574;14.224;2023-03-23T04:56:15;96882.53;;;-1.71;100.00
75815;BME280;64451;45.574;14.224;2023-03-23T04:58:16;96873.78;;;-1.65;100.00
75815;BME280;64451;45.574;14.224;2023-03-23T05:00:17;96883.16;;;-1.82;100.00
75815;BME280;64451;45.574;14.224;2023-03-23T05:02:17;96883.59;;;-1.92;100.00
75815;BME280;64451;45.574;14.224;2023-03-23T05:04:18;96884.00;;;-1.82;100.00
75815;BME280;64451;45.574;14.224;2023-03-23T05:06:18;96888.41;;;-1.76;100.00
75815;BME280;64451;45.574;14.224;2023-03-23T05:08:20;96891.47;;;-1.72;100.00
75815;BME280;64451;45.574;14.224;2023-03-23T05:10:21;96885.09;;;-1.58;100.00
75815;BME280;64451;45.574;14.224;2023-03-23T05:12:22;96892.38;;;-1.47;100.00
75815;BME280;64451;45.574;14.224;2023-03-23T05:14:42;96894.81;;;-1.52;100.00
75815;BME280;64451;45.574;14.224;2023-03-23T05:17:01;96896.97;;;-1.35;100.00
75815;BME280;64451;45.574;14.224;2023-03-23T05:19:02;96900.81;;;-1.31;100.00
75815;BME280;64451;45.574;14.224;2023-03-23T05:21:03;96897.41;;;-1.38;100.00
75815;BME280;64451;45.574;14.224;2023-03-23T05:23:03;96905.13;;;-1.44;100.00
75815;BME280;64451;45.574;14.224;2023-03-23T05:25:06;96911.50;;;-1.20;100.00
75815;BME280;64451;45.574;14.224;2023-03-23T05:27:09;96908.31;;;-0.90;100.00
75815;BME280;64451;45.574;14.224;2023-03-23T05:29:11;96908.22;;;-0.83;100.00
75815;BME280;64451;45.574;14.224;2023-03-23T05:31:11;96915.75;;;-0.80;100.00
75815;BME280;64451;45.574;14.224;2023-03-23T05:33:13;96911.50;;;-0.81;100.00
75815;BME280;64451;45.574;14.224;2023-03-23T05:35:13;96912.59;;;-0.64;100.00
75815;BME280;64451;45.574;14.224;2023-03-23T05:37:19;96916.34;;;-0.53;100.00
75815;BME280;64451;45.574;14.224;2023-03-23T05:39:20;96911.69;;;-0.83;100.00
75815;BME280;64451;45.574;14.224;2023-03-23T05:41:26;96920.34;;;-0.69;100.00
75815;BME280;64451;45.574;14.224;2023-03-23T05:43:32;96924.03;;;-0.77;100.00
75815;BME280;64451;45.574;14.224;2023-03-23T05:45:41;96918.09;;;-0.66;100.00
75815;BME280;64451;45.574;14.224;2023-03-23T05:47:42;96919.75;;;-0.21;100.00
75815;BME280;64451;45.574;14.224;2023-03-23T05:49:42;96921.09;;;0.24;100.00
75815;BME280;64451;45.574;14.224;2023-03-23T05:51:43;96923.75;;;0.61;100.00
75815;BME280;64451;45.574;14.224;2023-03-23T05:53:44;96927.16;;;0.80;100.00
75815;BME280;64451;45.574;14.224;2023-03-23T05:55:44;96934.94;;;0.93;100.00
75815;BME280;64451;45.574;14.224;2023-03-23T05:57:45;96943.09;;;1.22;100.00
75815;BME280;64451;45.574;14.224;2023-03-23T05:59:48;96929.41;;;1.25;100.00
75815;BME280;64451;45.574;14.224;2023-03-23T06:01:58;96937.06;;;1.33;100.00
75815;BME280;64451;45.574;14.224;2023-03-23T06:03:58;96932.09;;;1.48;100.00
75815;BME280;64451;45.574;14.224;2023-03-23T06:06:05;96943.00;;;1.17;100.00
75815;BME280;64451;45.574;14.224;2023-03-23T06:08:12;96936.28;;;1.14;100.00
75815;BME280;64451;45.574;14.224;2023-03-23T06:10:15;96940.53;;;1.57;100.00
75815;BME280;64451;45.574;14.224;2023-03-23T06:12:17;96944.69;;;1.41;100.00
75815;BME280;64451;45.574;14.224;2023-03-23T06:14:31;96940.91;;;1.19;100.00
75815;BME280;64451;45.574;14.224;2023-03-23T06:16:32;96947.44;;;1.46;100.00
75815;BME280;64451;45.574;14.224;2023-03-23T06:18:32;96949.81;;;2.13;100.00
75815;BME280;64451;45.574;14.224;2023-03-23T06:20:39;96947.25;;;2.41;100.00
75815;BME280;64451;45.574;14.224;2023-03-23T06:22:46;96958.25;;;2.10;100.00
75815;BME280;64451;45.574;14.224;2023-03-23T06:24:47;96952.34;;;1.84;100.00
75815;BME280;64451;45.574;14.224;2023-03-23T06:26:49;96953.06;;;1.91;100.00
75815;BME280;64451;45.574;14.224;2023-03-23T06:28:50;96963.00;;;2.08;100.00
75815;BME280;64451;45.574;14.224;2023-03-23T06:30:50;96956.44;;;2.62;100.00
75815;BME280;64451;45.574;14.224;2023-03-23T06:32:51;96961.53;;;3.04;100.00
75815;BME280;64451;45.574;14.224;2023-03-23T06:34:51;96956.81;;;3.51;98.71
75815;BME280;64451;45.574;14.224;2023-03-23T06:36:51;96958.13;;;3.49;95.61
75815;BME280;64451;45.574;14.224;2023-03-23T06:38:53;96957.53;;;3.63;96.26
75815;BME280;64451;45.574;14.224;2023-03-23T06:40:55;96949.50;;;3.58;94.17
75815;BME280;64451;45.574;14.224;2023-03-23T06:42:57;96960.47;;;3.17;91.86
75815;BME280;64451;45.574;14.224;2023-03-23T06:44:59;96952.44;;;3.45;92.68
75815;BME280;64451;45.574;14.224;2023-03-23T06:47:07;96961.34;;;3.84;88.93
75815;BME280;64451;45.574;14.224;2023-03-23T06:49:08;96969.09;;;4.03;86.68
75815;BME280;64451;45.574;14.224;2023-03-23T06:51:08;96963.59;;;4.09;85.31
75815;BME280;64451;45.574;14.224;2023-03-23T06:53:09;96959.41;;;3.80;86.72
75815;BME280;64451;45.574;14.224;2023-03-23T06:55:09;96973.75;;;3.62;89.28
75815;BME280;64451;45.574;14.224;2023-03-23T06:57:16;96959.25;;;3.70;89.90
75815;BME280;64451;45.574;14.224;2023-03-23T06:59:17;96968.94;;;3.76;91.04
75815;BME280;64451;45.574;14.224;2023-03-23T07:01:18;96963.25;;;4.39;87.72
75815;BME280;64451;45.574;14.224;2023-03-23T07:03:24;96961.22;;;4.68;85.32
75815;BME280;64451;45.574;14.224;2023-03-23T07:05:26;96957.69;;;5.06;85.28
75815;BME280;64451;45.574;14.224;2023-03-23T07:07:32;96953.91;;;5.02;85.06
75815;BME280;64451;45.574;14.224;2023-03-23T07:09:36;96957.31;;;6.06;82.16
75815;BME280;64451;45.574;14.224;2023-03-23T07:11:36;96960.72;;;5.69;82.27
75815;BME280;64451;45.574;14.224;2023-03-23T07:13:55;96956.75;;;6.41;80.70
75815;BME280;64451;45.574;14.224;2023-03-23T07:15:56;96950.22;;;7.57;77.07
75815;BME280;64451;45.574;14.224;2023-03-23T07:17:58;96950.81;;;6.81;80.62
75815;BME280;64451;45.574;14.224;2023-03-23T07:19:58;96955.88;;;8.32;78.34
75815;BME280;64451;45.574;14.224;2023-03-23T07:21:59;96949.69;;;8.52;72.18
75815;BME280;64451;45.574;14.224;2023-03-23T07:23:59;96955.34;;;8.25;74.32
75815;BME280;64451;45.574;14.224;2023-03-23T07:28:09;96955.69;;;9.97;65.03
75815;BME280;64451;45.574;14.224;2023-03-23T07:30:09;96959.38;;;10.40;65.23
75815;BME280;64451;45.574;14.224;2023-03-23T07:32:11;96955.31;;;10.66;62.54
75815;BME280;64451;45.574;14.224;2023-03-23T07:34:21;96954.25;;;10.67;64.46
75815;BME280;64451;45.574;14.224;2023-03-23T07:36:22;96958.19;;;10.99;62.25
75815;BME280;64451;45.574;14.224;2023-03-23T07:38:22;96957.53;;;10.88;63.04
75815;BME280;64451;45.574;14.224;2023-03-23T07:40:25;96949.25;;;10.56;63.70
75815;BME280;64451;45.574;14.224;2023-03-23T07:42:26;96947.25;;;11.14;66.18
75815;BME280;64451;45.574;14.224;2023-03-23T07:44:27;96943.13;;;11.97;59.16
75815;BME280;64451;45.574;14.224;2023-03-23T07:46:27;96937.78;;;12.11;58.44
75815;BME280;64451;45.574;14.224;2023-03-23T07:48:38;96948.25;;;11.42;60.15
75815;BME280;64451;45.574;14.224;2023-03-23T07:50:39;96940.66;;;11.25;61.70
75815;BME280;64451;45.574;14.224;2023-03-23T07:52:40;96946.69;;;11.36;61.81
75815;BME280;64451;45.574;14.224;2023-03-23T07:54:41;96947.44;;;11.61;60.52
75815;BME280;64451;45.574;14.224;2023-03-23T07:56:42;96937.16;;;11.63;59.13
75815;BME280;64451;45.574;14.224;2023-03-23T07:58:43;96935.13;;;10.69;62.37
75815;BME280;64451;45.574;14.224;2023-03-23T08:00:47;96929.22;;;11.34;63.69
75815;BME280;64451;45.574;14.224;2023-03-23T08:02:53;96923.31;;;11.88;59.25
75815;BME280;64451;45.574;14.224;2023-03-23T08:04:55;96932.56;;;11.82;58.33
75815;BME280;64451;45.574;14.224;2023-03-23T08:06:56;96931.56;;;11.59;59.20
75815;BME280;64451;45.574;14.224;2023-03-23T08:08:59;96933.34;;;10.83;64.71
75815;BME280;64451;45.574;14.224;2023-03-23T08:11:00;96941.72;;;9.61;68.35
75815;BME280;64451;45.574;14.224;2023-03-23T08:13:00;96924.88;;;10.13;68.14
75815;BME280;64451;45.574;14.224;2023-03-23T08:15:05;96921.69;;;10.40;68.22
75815;BME280;64451;45.574;14.224;2023-03-23T08:17:06;96923.88;;;11.10;66.20
75815;BME280;64451;45.574;14.224;2023-03-23T08:19:07;96933.97;;;11.61;62.44
75815;BME280;64451;45.574;14.224;2023-03-23T08:21:08;96923.16;;;11.79;63.16
75815;BME280;64451;45.574;14.224;2023-03-23T08:23:09;96933.28;;;11.50;65.20
75815;BME280;64451;45.574;14.224;2023-03-23T08:25:12;96931.78;;;12.14;61.88
75815;BME280;64451;45.574;14.224;2023-03-23T08:27:12;96929.00;;;12.52;63.01
75815;BME280;64451;45.574;14.224;2023-03-23T08:29:13;96930.00;;;12.97;54.96
75815;BME280;64451;45.574;14.224;2023-03-23T08:31:15;96931.28;;;13.13;54.46
75815;BME280;64451;45.574;14.224;2023-03-23T08:33:15;96923.66;;;13.15;58.28
75815;BME280;64451;45.574;14.224;2023-03-23T08:35:36;96932.44;;;13.48;56.08
75815;BME280;64451;45.574;14.224;2023-03-23T08:37:38;96922.22;;;13.59;53.40
75815;BME280;64451;45.574;14.224;2023-03-23T08:39:38;96926.97;;;13.76;55.64
75815;BME280;64451;45.574;14.224;2023-03-23T08:41:39;96922.31;;;13.90;53.68
75815;BME280;64451;45.574;14.224;2023-03-23T08:43:41;96923.28;;;13.94;53.14
75815;BME280;64451;45.574;14.224;2023-03-23T08:45:43;96926.97;;;14.21;54.64
75815;BME280;64451;45.574;14.224;2023-03-23T08:47:44;96923.31;;;14.48;51.66
75815;BME280;64451;45.574;14.224;2023-03-23T08:49:46;96916.28;;;14.69;52.42
75815;BME280;64451;45.574;14.224;2023-03-23T08:51:46;96921.44;;;14.88;56.57
75815;BME280;64451;45.574;14.224;2023-03-23T08:53:48;96922.03;;;14.76;53.47
75815;BME280;64451;45.574;14.224;2023-03-23T08:55:49;96921.00;;;15.86;49.73
75815;BME280;64451;45.574;14.224;2023-03-23T08:57:49;96914.28;;;16.01;52.73
75815;BME280;64451;45.574;14.224;2023-03-23T08:59:51;96917.63;;;15.72;52.20
75815;BME280;64451;45.574;14.224;2023-03-23T09:01:54;96911.88;;;16.81;47.64
75815;BME280;64451;45.574;14.224;2023-03-23T09:03:55;96913.88;;;17.31;49.71
75815;BME280;64451;45.574;14.224;2023-03-23T09:06:06;96909.41;;;17.26;50.94
75815;BME280;64451;45.574;14.224;2023-03-23T09:08:07;96909.06;;;16.51;49.78
75815;BME280;64451;45.574;14.224;2023-03-23T09:10:08;96912.22;;;15.72;54.21
75815;BME280;64451;45.574;14.224;2023-03-23T09:12:09;96907.56;;;17.39;48.63
75815;BME280;64451;45.574;14.224;2023-03-23T09:14:10;96906.22;;;16.48;54.68
75815;BME280;64451;45.574;14.224;2023-03-23T09:16:11;96904.06;;;16.71;52.99
75815;BME280;64451;45.574;14.224;2023-03-23T09:20:22;96903.34;;;18.25;44.86
75815;BME280;64451;45.574;14.224;2023-03-23T09:22:23;96901.66;;;18.20;49.72
75815;BME280;64451;45.574;14.224;2023-03-23T09:24:24;96893.94;;;18.68;48.78
75815;BME280;64451;45.574;14.224;2023-03-23T09:26:26;96892.38;;;18.91;46.31
75815;BME280;64451;45.574;14.224;2023-03-23T09:28:27;96894.56;;;18.07;50.13
75815;BME280;64451;45.574;14.224;2023-03-23T09:30:30;96888.22;;;18.48;48.53
75815;BME280;64451;45.574;14.224;2023-03-23T09:32:33;96885.22;;;18.99;48.35
75815;BME280;64451;45.574;14.224;2023-03-23T09:34:35;96885.34;;;18.00;47.38
75815;BME280;64451;45.574;14.224;2023-03-23T09:36:36;96890.66;;;17.54;50.79
75815;BME280;64451;45.574;14.224;2023-03-23T09:38:39;96892.28;;;17.26;48.00
75815;BME280;64451;45.574;14.224;2023-03-23T09:41:02;96883.22;;;17.22;48.25
75815;BME280;64451;45.574;14.224;2023-03-23T09:43:17;96876.03;;;18.01;48.38
75815;BME280;64451;45.574;14.224;2023-03-23T09:45:27;96878.50;;;18.27;46.07
75815;BME280;64451;45.574;14.224;2023-03-23T09:48:00;96870.16;;;18.11;45.49
75815;BME280;64451;45.574;14.224;2023-03-23T09:50:14;96878.16;;;17.53;47.31
75815;BME280;64451;45.574;14.224;2023-03-23T09:52:18;96879.38;;;17.85;43.62
75815;BME280;64451;45.574;14.224;2023-03-23T09:54:39;96869.69;;;17.96;44.19
75815;BME280;64451;45.574;14.224;2023-03-23T09:56:40;96872.47;;;17.67;48.18
75815;BME280;64451;45.574;14.224;2023-03-23T09:58:53;96863.56;;;17.58;44.50
75815;BME280;64451;45.574;14.224;2023-03-23T10:01:06;96864.16;;;17.42;48.03
75815;BME280;64451;45.574;14.224;2023-03-23T10:03:16;96858.88;;;17.46;46.97
75815;BME280;64451;45.574;14.224;2023-03-23T10:07:32;96846.53;;;18.48;43.89
75815;BME280;64451;45.574;14.224;2023-03-23T10:09:33;96851.22;;;17.60;45.82
75815;BME280;64451;45.574;14.224;2023-03-23T10:13:59;96844.09;;;18.92;44.97
75815;BME280;64451;45.574;14.224;2023-03-23T10:16:04;96839.97;;;19.22;44.41
75815;BME280;64451;45.574;14.224;2023-03-23T10:18:29;96840.94;;;19.42;42.79
75815;BME280;64451;45.574;14.224;2023-03-23T10:20:56;96834.63;;;19.14;43.68
75815;BME280;64451;45.574;14.224;2023-03-23T10:27:19;96835.25;;;19.35;41.80
75815;BME280;64451;45.574;14.224;2023-03-23T10:29:28;96834.44;;;19.59;42.92
75815;BME280;64451;45.574;14.224;2023-03-23T10:31:36;96827.41;;;19.86;40.30
75815;BME280;64451;45.574;14.224;2023-03-23T10:33:44;96831.13;;;19.13;43.72
75815;BME280;64451;45.574;14.224;2023-03-23T10:35:48;96827.09;;;18.62;42.65
75815;BME280;64451;45.574;14.224;2023-03-23T10:37:58;96830.22;;;18.72;44.10
75815;BME280;64451;45.574;14.224;2023-03-23T10:40:02;96833.56;;;18.33;42.52
75815;BME280;64451;45.574;14.224;2023-03-23T10:42:03;96823.88;;;18.80;41.80
75815;BME280;64451;45.574;14.224;2023-03-23T10:44:13;96829.03;;;18.61;42.45
75815;BME280;64451;45.574;14.224;2023-03-23T10:48:37;96824.91;;;18.88;42.86
75815;BME280;64451;45.574;14.224;2023-03-23T10:50:38;96829.00;;;19.34;41.03
75815;BME280;64451;45.574;14.224;2023-03-23T10:52:42;96826.31;;;18.61;41.73
75815;BME280;64451;45.574;14.224;2023-03-23T10:55:16;96840.13;;;18.89;42.36
75815;BME280;64451;45.574;14.224;2023-03-23T10:57:28;96837.53;;;19.33;41.11
75815;BME280;64451;45.574;14.224;2023-03-23T10:59:30;96837.47;;;18.93;40.39
75815;BME280;64451;45.574;14.224;2023-03-23T11:01:34;96839.78;;;18.78;41.31
75815;BME280;64451;45.574;14.224;2023-03-23T11:03:43;96846.34;;;18.65;40.98
75815;BME280;64451;45.574;14.224;2023-03-23T11:07:54;96833.09;;;19.41;43.28
75815;BME280;64451;45.574;14.224;2023-03-23T11:09:59;96834.59;;;18.40;44.12
75815;BME280;64451;45.574;14.224;2023-03-23T11:12:04;96834.28;;;18.54;44.13
75815;BME280;64451;45.574;14.224;2023-03-23T11:14:27;96839.06;;;18.94;42.89
75815;BME280;64451;45.574;14.224;2023-03-23T11:16:29;96830.78;;;18.90;42.11
75815;BME280;64451;45.574;14.224;2023-03-23T11:18:40;96836.00;;;18.83;42.58
75815;BME280;64451;45.574;14.224;2023-03-23T11:20:44;96825.56;;;19.62;44.24
75815;BME280;64451;45.574;14.224;2023-03-23T11:22:47;96824.25;;;19.31;41.63